sensor_id;sensor_type;location;lat;lon;timestamp;temperature;humidity
47482;DHT22;33219;47.410;9.730;2022-09-28T00:01:18;8.50;99.90
47482;DHT22;33219;47.410;9.730;2022-09-28T00:03:47;8.40;99.90
47482;DHT22;33219;47.410;9.730;2022-09-28T00:06:17;8.40;99.90
47482;DHT22;33219;47.410;9.730;2022-09-28T00:08:45;8.40;99.90
47482;DHT22;33219;47.410;9.730;2022-09-28T00:11:16;8.50;99.90
47482;DHT22;33219;47.410;9.730;2022-09-28T00:13:47;8.40;99.90
47482;DHT22;33219;47.410;9.730;2022-09-28T00:16:15;8.50;99.90
47482;DHT22;33219;47.410;9.730;2022-09-28T00:18:45;8.50;99.90
47482;DHT22;33219;47.410;9.730;2022-09-28T00:21:15;8.50;99.90
47482;DHT22;33219;47.410;9.730;2022-09-28T00:23:44;8.50;99.90
47482;DHT22;33219;47.410;9.730;2022-09-28T00:26:31;8.50;99.90
47482;DHT22;33219;47.410;9.730;2022-09-28T00:29:00;8.50;99.90
47482;DHT22;33219;47.410;9.730;2022-09-28T00:31:31;8.50;99.90
47482;DHT22;33219;47.410;9.730;2022-09-28T00:34:00;8.40;99.90
47482;DHT22;33219;47.410;9.730;2022-09-28T00:36:31;8.40;99.90
47482;DHT22;33219;47.410;9.730;2022-09-28T00:39:04;8.40;99.90
47482;DHT22;33219;47.410;9.730;2022-09-28T00:41:32;8.40;99.90
47482;DHT22;33219;47.410;9.730;2022-09-28T00:49:32;8.40;99.90
47482;DHT22;33219;47.410;9.730;2022-09-28T00:52:01;8.30;99.90
47482;DHT22;33219;47.410;9.730;2022-09-28T00:54:29;8.30;99.90
47482;DHT22;33219;47.410;9.730;2022-09-28T00:56:57;8.20;99.90
47482;DHT22;33219;47.410;9.730;2022-09-28T00:59:25;8.20;99.90
47482;DHT22;33219;47.410;9.730;2022-09-28T01:01:53;8.20;99.90
47482;DHT22;33219;47.410;9.730;2022-09-28T01:04:21;8.10;99.90
47482;DHT22;33219;47.410;9.730;2022-09-28T01:06:50;8.20;99.90
47482;DHT22;33219;47.410;9.730;2022-09-28T01:09:18;8.10;99.90
47482;DHT22;33219;47.410;9.730;2022-09-28T01:11:47;8.10;99.90
47482;DHT22;33219;47.410;9.730;2022-09-28T01:14:15;8.10;99.90
47482;DHT22;33219;47.410;9.730;2022-09-28T01:17:00;8.00;99.90
47482;DHT22;33219;47.410;9.730;2022-09-28T01:19:57;8.00;99.90
47482;DHT22;33219;47.410;9.730;2022-09-28T01:22:31;7.90;99.90
47482;DHT22;33219;47.410;9.730;2022-09-28T01:25:12;7.90;99.90
47482;DHT22;33219;47.410;9.730;2022-09-28T01:27:48;7.90;99.90
47482;DHT22;33219;47.410;9.730;2022-09-28T01:30:17;7.90;99.90
47482;DHT22;33219;47.410;9.730;2022-09-28T01:33:23;8.00;99.90
47482;DHT22;33219;47.410;9.730;2022-09-28T01:35:41;8.00;99.90
47482;DHT22;33219;47.410;9.730;2022-09-28T01:38:18;8.10;99.90
47482;DHT22;33219;47.410;9.730;2022-09-28T01:40:46;8.10;99.90
47482;DHT22;33219;47.410;9.730;2022-09-28T01:43:21;8.10;99.90
47482;DHT22;33219;47.410;9.730;2022-09-28T01:45:51;8.10;99.90
47482;DHT22;33219;47.410;9.730;2022-09-28T01:48:35;8.10;99.90
47482;DHT22;33219;47.410;9.730;2022-09-28T01:51:03;8.10;99.90
47482;DHT22;33219;47.410;9.730;2022-09-28T01:53:38;8.10;99.90
47482;DHT22;33219;47.410;9.730;2022-09-28T01:56:08;8.10;99.90
47482;DHT22;33219;47.410;9.730;2022-09-28T01:58:45;8.20;99.90
47482;DHT22;33219;47.410;9.730;2022-09-28T02:01:19;8.20;99.90
47482;DHT22;33219;47.410;9.730;2022-09-28T02:03:55;8.10;99.90
47482;DHT22;33219;47.410;9.730;2022-09-28T02:06:25;8.10;99.90
47482;DHT22;33219;47.410;9.730;2022-09-28T02:08:55;8.10;99.90
47482;DHT22;33219;47.410;9.730;2022-09-28T02:11:23;8.10;99.90
47482;DHT22;33219;47.410;9.730;2022-09-28T02:14:08;8.20;99.90
47482;DHT22;33219;47.410;9.730;2022-09-28T02:16:45;8.10;99.90
47482;DHT22;33219;47.410;9.730;2022-09-28T02:19:15;8.10;99.90
47482;DHT22;33219;47.410;9.730;2022-09-28T02:22:01;8.20;99.90
47482;DHT22;33219;47.410;9.730;2022-09-28T02:29:57;8.20;99.90
47482;DHT22;33219;47.410;9.730;2022-09-28T02:32:27;8.20;99.90
47482;DHT22;33219;47.410;9.730;2022-09-28T02:34:55;8.20;99.90
47482;DHT22;33219;47.410;9.730;2022-09-28T02:37:23;8.20;99.90
47482;DHT22;33219;47.410;9.730;2022-09-28T02:39:50;8.20;99.90
47482;DHT22;33219;47.410;9.730;2022-09-28T02:42:32;8.20;99.90
47482;DHT22;33219;47.410;9.730;2022-09-28T02:45:21;8.30;99.90
47482;DHT22;33219;47.410;9.730;2022-09-28T02:47:59;8.30;99.90
47482;DHT22;33219;47.410;9.730;2022-09-28T03:01:44;8.30;99.90
47482;DHT22;33219;47.410;9.730;2022-09-28T03:07:13;8.40;99.90
47482;DHT22;33219;47.410;9.730;2022-09-28T03:10:00;8.30;99.90
47482;DHT22;33219;47.410;9.730;2022-09-28T03:12:27;8.30;99.90
47482;DHT22;33219;47.410;9.730;2022-09-28T03:15:22;8.30;99.90
47482;DHT22;33219;47.410;9.730;2022-09-28T03:17:50;8.30;99.90
47482;DHT22;33219;47.410;9.730;2022-09-28T03:20:18;8.30;99.90
47482;DHT22;33219;47.410;9.730;2022-09-28T03:22:45;8.30;99.90
47482;DHT22;33219;47.410;9.730;2022-09-28T03:25:13;8.30;99.90
47482;DHT22;33219;47.410;9.730;2022-09-28T03:27:44;8.30;99.90
47482;DHT22;33219;47.410;9.730;2022-09-28T03:30:12;8.30;99.90
47482;DHT22;33219;47.410;9.730;2022-09-28T03:32:40;8.30;99.90
47482;DHT22;33219;47.410;9.730;2022-09-28T03:35:08;8.30;99.90
47482;DHT22;33219;47.410;9.730;2022-09-28T03:37:36;8.30;99.90
47482;DHT22;33219;47.410;9.730;2022-09-28T03:40:04;8.30;99.90
47482;DHT22;33219;47.410;9.730;2022-09-28T03:42:34;8.30;99.90
47482;DHT22;33219;47.410;9.730;2022-09-28T03:45:03;8.30;99.90
47482;DHT22;33219;47.410;9.730;2022-09-28T03:47:30;8.30;99.90
47482;DHT22;33219;47.410;9.730;2022-09-28T03:49:58;8.30;99.90
47482;DHT22;33219;47.410;9.730;2022-09-28T03:52:25;8.30;99.90
47482;DHT22;33219;47.410;9.730;2022-09-28T03:54:53;8.30;99.90
47482;DHT22;33219;47.410;9.730;2022-09-28T03:57:20;8.30;99.90
47482;DHT22;33219;47.410;9.730;2022-09-28T03:59:48;8.30;99.90
47482;DHT22;33219;47.410;9.730;2022-09-28T04:02:15;8.30;99.90
47482;DHT22;33219;47.410;9.730;2022-09-28T04:04:43;8.30;99.90
47482;DHT22;33219;47.410;9.730;2022-09-28T04:07:10;8.20;99.90
47482;DHT22;33219;47.410;9.730;2022-09-28T04:09:38;8.20;99.90
47482;DHT22;33219;47.410;9.730;2022-09-28T04:12:06;8.20;99.90
47482;DHT22;33219;47.410;9.730;2022-09-28T04:14:33;8.20;99.90
47482;DHT22;33219;47.410;9.730;2022-09-28T04:17:01;8.20;99.90
47482;DHT22;33219;47.410;9.730;2022-09-28T04:19:28;8.10;99.90
47482;DHT22;33219;47.410;9.730;2022-09-28T04:21:56;8.10;99.90
47482;DHT22;33219;47.410;9.730;2022-09-28T04:24:23;8.10;99.90
47482;DHT22;33219;47.410;9.730;2022-09-28T04:26:51;8.10;99.90
47482;DHT22;33219;47.410;9.730;2022-09-28T04:29:20;8.00;99.90
47482;DHT22;33219;47.410;9.730;2022-09-28T04:31:52;8.00;99.90
47482;DHT22;33219;47.410;9.730;2022-09-28T04:34:21;8.00;99.90
47482;DHT22;33219;47.410;9.730;2022-09-28T04:36:49;8.00;99.90
47482;DHT22;33219;47.410;9.730;2022-09-28T04:39:17;8.00;99.90
47482;DHT22;33219;47.410;9.730;2022-09-28T04:41:47;8.00;99.90
47482;DHT22;33219;47.410;9.730;2022-09-28T04:44:14;8.00;99.90
47482;DHT22;33219;47.410;9.730;2022-09-28T04:46:42;8.00;99.90
47482;DHT22;33219;47.410;9.730;2022-09-28T04:49:10;8.00;99.90
47482;DHT22;33219;47.410;9.730;2022-09-28T04:51:37;8.00;99.90
47482;DHT22;33219;47.410;9.730;2022-09-28T04:54:05;8.00;99.90
47482;DHT22;33219;47.410;9.730;2022-09-28T04:56:32;8.10;99.90
47482;DHT22;33219;47.410;9.730;2022-09-28T04:59:00;8.10;99.90
47482;DHT22;33219;47.410;9.730;2022-09-28T05:01:28;8.10;99.90
47482;DHT22;33219;47.410;9.730;2022-09-28T05:03:56;8.20;99.90
47482;DHT22;33219;47.410;9.730;2022-09-28T05:06:24;8.20;99.90
47482;DHT22;33219;47.410;9.730;2022-09-28T05:08:53;8.20;99.90
47482;DHT22;33219;47.410;9.730;2022-09-28T05:11:22;8.20;99.90
47482;DHT22;33219;47.410;9.730;2022-09-28T05:13:50;8.20;99.90
47482;DHT22;33219;47.410;9.730;2022-09-28T05:16:17;8.20;99.90
47482;DHT22;33219;47.410;9.730;2022-09-28T05:18:45;8.20;99.90
47482;DHT22;33219;47.410;9.730;2022-09-28T05:21:14;8.20;99.90
47482;DHT22;33219;47.410;9.730;2022-09-28T05:23:47;8.20;99.90
47482;DHT22;33219;47.410;9.730;2022-09-28T05:26:14;8.20;99.90
47482;DHT22;33219;47.410;9.730;2022-09-28T05:28:46;8.20;99.90
47482;DHT22;33219;47.410;9.730;2022-09-28T05:31:14;8.20;99.90
47482;DHT22;33219;47.410;9.730;2022-09-28T05:33:48;8.10;99.90
47482;DHT22;33219;47.410;9.730;2022-09-28T05:36:27;8.10;99.90
47482;DHT22;33219;47.410;9.730;2022-09-28T05:39:02;8.10;99.90
47482;DHT22;33219;47.410;9.730;2022-09-28T05:51:25;8.10;99.90
47482;DHT22;33219;47.410;9.730;2022-09-28T06:06:21;8.10;99.90
47482;DHT22;33219;47.410;9.730;2022-09-28T07:05:05;8.40;99.90
47482;DHT22;33219;47.410;9.730;2022-09-28T07:07:43;8.50;99.90
47482;DHT22;33219;47.410;9.730;2022-09-28T07:10:18;8.50;99.90
47482;DHT22;33219;47.410;9.730;2022-09-28T07:15:27;8.50;99.90
47482;DHT22;33219;47.410;9.730;2022-09-28T07:18:04;8.50;99.90
47482;DHT22;33219;47.410;9.730;2022-09-28T07:20:40;8.50;99.90
47482;DHT22;33219;47.410;9.730;2022-09-28T07:23:17;8.50;99.90
47482;DHT22;33219;47.410;9.730;2022-09-28T07:25:52;8.40;99.90
47482;DHT22;33219;47.410;9.730;2022-09-28T07:31:40;8.50;99.90
47482;DHT22;33219;47.410;9.730;2022-09-28T07:34:38;8.50;99.90
47482;DHT22;33219;47.410;9.730;2022-09-28T07:37:27;8.40;99.90
47482;DHT22;33219;47.410;9.730;2022-09-28T07:43:15;8.40;99.90
47482;DHT22;33219;47.410;9.730;2022-09-28T07:45:54;8.40;99.90
47482;DHT22;33219;47.410;9.730;2022-09-28T07:48:33;8.50;99.90
47482;DHT22;33219;47.410;9.730;2022-09-28T07:51:10;8.50;99.90
47482;DHT22;33219;47.410;9.730;2022-09-28T07:54:05;8.50;99.90
47482;DHT22;33219;47.410;9.730;2022-09-28T07:57:20;8.60;99.90
47482;DHT22;33219;47.410;9.730;2022-09-28T08:00:08;8.60;99.90
47482;DHT22;33219;47.410;9.730;2022-09-28T08:02:54;8.60;99.90
47482;DHT22;33219;47.410;9.730;2022-09-28T08:05:34;8.60;99.90
47482;DHT22;33219;47.410;9.730;2022-09-28T08:08:13;8.60;99.90
47482;DHT22;33219;47.410;9.730;2022-09-28T08:10:59;8.60;99.90
47482;DHT22;33219;47.410;9.730;2022-09-28T08:13:39;8.60;99.90
47482;DHT22;33219;47.410;9.730;2022-09-28T08:19:41;8.60;99.90
47482;DHT22;33219;47.410;9.730;2022-09-28T08:22:22;8.60;99.90
47482;DHT22;33219;47.410;9.730;2022-09-28T08:25:09;8.70;99.90
47482;DHT22;33219;47.410;9.730;2022-09-28T08:27:54;8.70;99.90
47482;DHT22;33219;47.410;9.730;2022-09-28T08:30:41;8.70;99.90
47482;DHT22;33219;47.410;9.730;2022-09-28T08:33:18;8.80;99.90
47482;DHT22;33219;47.410;9.730;2022-09-28T08:36:17;8.70;99.90
47482;DHT22;33219;47.410;9.730;2022-09-28T08:41:44;8.80;99.90
47482;DHT22;33219;47.410;9.730;2022-09-28T08:44:47;8.90;99.90
47482;DHT22;33219;47.410;9.730;2022-09-28T08:57:23;8.80;99.90
47482;DHT22;33219;47.410;9.730;2022-09-28T09:02:36;9.00;99.90
47482;DHT22;33219;47.410;9.730;2022-09-28T09:05:12;9.00;99.90
47482;DHT22;33219;47.410;9.730;2022-09-28T09:08:07;9.10;99.90
47482;DHT22;33219;47.410;9.730;2022-09-28T09:10:46;9.10;99.90
47482;DHT22;33219;47.410;9.730;2022-09-28T09:13:46;9.20;99.90
47482;DHT22;33219;47.410;9.730;2022-09-28T09:16:21;9.20;99.90
47482;DHT22;33219;47.410;9.730;2022-09-28T09:19:01;9.10;99.90
47482;DHT22;33219;47.410;9.730;2022-09-28T09:21:45;9.10;99.90
47482;DHT22;33219;47.410;9.730;2022-09-28T09:27:05;9.10;99.90
47482;DHT22;33219;47.410;9.730;2022-09-28T09:35:28;9.20;99.90
47482;DHT22;33219;47.410;9.730;2022-09-28T09:47:34;9.10;99.90
47482;DHT22;33219;47.410;9.730;2022-09-28T09:50:07;9.10;99.90
47482;DHT22;33219;47.410;9.730;2022-09-28T09:52:46;9.00;99.90
47482;DHT22;33219;47.410;9.730;2022-09-28T09:55:26;9.10;99.90
47482;DHT22;33219;47.410;9.730;2022-09-28T09:58:25;9.10;99.90
47482;DHT22;33219;47.410;9.730;2022-09-28T10:01:16;9.30;99.90
47482;DHT22;33219;47.410;9.730;2022-09-28T10:03:51;9.40;99.90
47482;DHT22;33219;47.410;9.730;2022-09-28T10:06:25;9.50;99.90
47482;DHT22;33219;47.410;9.730;2022-09-28T10:09:15;9.50;99.90
47482;DHT22;33219;47.410;9.730;2022-09-28T10:11:47;9.40;99.90
47482;DHT22;33219;47.410;9.730;2022-09-28T10:14:26;9.40;99.90
47482;DHT22;33219;47.410;9.730;2022-09-28T10:17:02;9.40;99.90
47482;DHT22;33219;47.410;9.730;2022-09-28T10:20:05;9.40;99.90
47482;DHT22;33219;47.410;9.730;2022-09-28T10:22:39;9.40;99.90
47482;DHT22;33219;47.410;9.730;2022-09-28T10:25:13;9.40;99.90
47482;DHT22;33219;47.410;9.730;2022-09-28T10:27:55;9.40;99.90
47482;DHT22;33219;47.410;9.730;2022-09-28T10:30:38;9.40;99.90
47482;DHT22;33219;47.410;9.730;2022-09-28T10:36:03;9.50;99.90
47482;DHT22;33219;47.410;9.730;2022-09-28T10:38:31;9.60;99.90
47482;DHT22;33219;47.410;9.730;2022-09-28T10:41:00;9.70;99.90
47482;DHT22;33219;47.410;9.730;2022-09-28T10:43:36;9.70;99.90
47482;DHT22;33219;47.410;9.730;2022-09-28T10:46:08;9.80;99.90
47482;DHT22;33219;47.410;9.730;2022-09-28T10:49:24;9.80;99.90
47482;DHT22;33219;47.410;9.730;2022-09-28T10:51:07;9.90;99.90
47482;DHT22;33219;47.410;9.730;2022-09-28T10:53:36;10.00;99.90
47482;DHT22;33219;47.410;9.730;2022-09-28T10:56:18;10.10;99.90
47482;DHT22;33219;47.410;9.730;2022-09-28T10:58:43;10.00;99.90
47482;DHT22;33219;47.410;9.730;2022-09-28T11:01:14;10.10;99.90
47482;DHT22;33219;47.410;9.730;2022-09-28T11:03:56;10.10;99.90
47482;DHT22;33219;47.410;9.730;2022-09-28T11:06:34;10.20;99.90
47482;DHT22;33219;47.410;9.730;2022-09-28T11:09:13;10.30;99.90
47482;DHT22;33219;47.410;9.730;2022-09-28T11:11:41;10.20;99.90
47482;DHT22;33219;47.410;9.730;2022-09-28T11:14:33;10.10;99.90
47482;DHT22;33219;47.410;9.730;2022-09-28T11:17:31;10.10;99.90
47482;DHT22;33219;47.410;9.730;2022-09-28T11:22:38;10.20;99.90
47482;DHT22;33219;47.410;9.730;2022-09-28T11:30:24;10.40;99.90
47482;DHT22;33219;47.410;9.730;2022-09-28T11:32:55;10.50;99.90
47482;DHT22;33219;47.410;9.730;2022-09-28T11:35:27;10.60;99.90
47482;DHT22;33219;47.410;9.730;2022-09-28T11:37:58;10.60;99.90
47482;DHT22;33219;47.410;9.730;2022-09-28T11:43:32;10.60;99.90
47482;DHT22;33219;47.410;9.730;2022-09-28T11:46:14;10.60;99.90
47482;DHT22;33219;47.410;9.730;2022-09-28T11:48:48;10.60;99.90
47482;DHT22;33219;47.410;9.730;2022-09-28T11:51:27;10.60;99.90
47482;DHT22;33219;47.410;9.730;2022-09-28T11:53:58;10.60;99.90
47482;DHT22;33219;47.410;9.730;2022-09-28T11:56:46;10.70;99.90
47482;DHT22;33219;47.410;9.730;2022-09-28T11:59:31;10.70;99.90
47482;DHT22;33219;47.410;9.730;2022-09-28T12:02:18;10.60;99.90
47482;DHT22;33219;47.410;9.730;2022-09-28T12:04:55;10.60;99.90
47482;DHT22;33219;47.410;9.730;2022-09-28T12:07:32;10.60;99.90
47482;DHT22;33219;47.410;9.730;2022-09-28T12:12:37;10.80;99.90
47482;DHT22;33219;47.410;9.730;2022-09-28T12:15:32;10.90;99.90
47482;DHT22;33219;47.410;9.730;2022-09-28T12:18:02;11.00;99.90
47482;DHT22;33219;47.410;9.730;2022-09-28T12:20:37;11.10;99.90
47482;DHT22;33219;47.410;9.730;2022-09-28T12:23:37;11.10;99.90
47482;DHT22;33219;47.410;9.730;2022-09-28T12:31:02;11.10;99.90
47482;DHT22;33219;47.410;9.730;2022-09-28T12:33:28;11.20;99.90
47482;DHT22;33219;47.410;9.730;2022-09-28T12:36:10;11.30;99.90
47482;DHT22;33219;47.410;9.730;2022-09-28T12:38:40;11.30;99.90
47482;DHT22;33219;47.410;9.730;2022-09-28T12:52:27;11.70;99.90
47482;DHT22;33219;47.410;9.730;2022-09-28T12:55:15;11.60;99.90
47482;DHT22;33219;47.410;9.730;2022-09-28T13:00:29;11.60;99.90
47482;DHT22;33219;47.410;9.730;2022-09-28T13:06:21;11.60;99.90
47482;DHT22;33219;47.410;9.730;2022-09-28T13:08:58;11.70;99.90
47482;DHT22;33219;47.410;9.730;2022-09-28T13:11:39;11.90;99.90
47482;DHT22;33219;47.410;9.730;2022-09-28T13:14:18;12.10;99.90
47482;DHT22;33219;47.410;9.730;2022-09-28T13:16:43;12.20;99.90
47482;DHT22;33219;47.410;9.730;2022-09-28T13:21:51;12.30;99.90
47482;DHT22;33219;47.410;9.730;2022-09-28T13:24:23;12.10;99.90
47482;DHT22;33219;47.410;9.730;2022-09-28T13:26:53;12.00;99.90
47482;DHT22;33219;47.410;9.730;2022-09-28T13:29:22;12.00;99.90
47482;DHT22;33219;47.410;9.730;2022-09-28T13:31:54;11.80;99.90
47482;DHT22;33219;47.410;9.730;2022-09-28T13:34:26;11.70;99.90
47482;DHT22;33219;47.410;9.730;2022-09-28T13:48:03;11.20;99.90
47482;DHT22;33219;47.410;9.730;2022-09-28T13:59:00;11.20;99.90
47482;DHT22;33219;47.410;9.730;2022-09-28T14:01:37;11.20;99.90
47482;DHT22;33219;47.410;9.730;2022-09-28T14:04:19;11.20;99.90
47482;DHT22;33219;47.410;9.730;2022-09-28T14:12:42;10.90;99.90
47482;DHT22;33219;47.410;9.730;2022-09-28T14:14:58;10.90;99.90
47482;DHT22;33219;47.410;9.730;2022-09-28T14:20:08;10.90;99.90
47482;DHT22;33219;47.410;9.730;2022-09-28T14:22:51;10.70;99.90
47482;DHT22;33219;47.410;9.730;2022-09-28T14:25:23;10.60;99.90
47482;DHT22;33219;47.410;9.730;2022-09-28T14:30:52;10.40;99.90
47482;DHT22;33219;47.410;9.730;2022-09-28T14:33:30;10.40;99.90
47482;DHT22;33219;47.410;9.730;2022-09-28T14:36:18;10.40;99.90
47482;DHT22;33219;47.410;9.730;2022-09-28T14:38:35;10.30;99.90
47482;DHT22;33219;47.410;9.730;2022-09-28T14:41:38;10.20;99.90
47482;DHT22;33219;47.410;9.730;2022-09-28T14:44:04;10.20;99.90
47482;DHT22;33219;47.410;9.730;2022-09-28T14:46:45;10.20;99.90
47482;DHT22;33219;47.410;9.730;2022-09-28T14:54:25;10.30;99.90
47482;DHT22;33219;47.410;9.730;2022-09-28T14:57:09;10.20;99.90
47482;DHT22;33219;47.410;9.730;2022-09-28T14:59:42;10.30;99.90
47482;DHT22;33219;47.410;9.730;2022-09-28T15:02:16;10.20;99.90
47482;DHT22;33219;47.410;9.730;2022-09-28T15:05:08;10.30;99.90
47482;DHT22;33219;47.410;9.730;2022-09-28T15:07:43;10.30;99.90
47482;DHT22;33219;47.410;9.730;2022-09-28T15:10:34;10.20;99.90
47482;DHT22;33219;47.410;9.730;2022-09-28T15:13:05;10.20;99.90
47482;DHT22;33219;47.410;9.730;2022-09-28T15:15:36;10.20;99.90
47482;DHT22;33219;47.410;9.730;2022-09-28T15:20:48;10.20;99.90
47482;DHT22;33219;47.410;9.730;2022-09-28T15:25:55;10.10;99.90
47482;DHT22;33219;47.410;9.730;2022-09-28T15:28:23;10.10;99.90
47482;DHT22;33219;47.410;9.730;2022-09-28T15:30:59;10.00;99.90
47482;DHT22;33219;47.410;9.730;2022-09-28T15:33:29;10.00;99.90
47482;DHT22;33219;47.410;9.730;2022-09-28T15:36:28;9.90;99.90
47482;DHT22;33219;47.410;9.730;2022-09-28T15:38:57;9.90;99.90
47482;DHT22;33219;47.410;9.730;2022-09-28T15:41:25;9.80;99.90
47482;DHT22;33219;47.410;9.730;2022-09-28T15:44:05;9.80;99.90
47482;DHT22;33219;47.410;9.730;2022-09-28T15:46:40;9.70;99.90
47482;DHT22;33219;47.410;9.730;2022-09-28T15:49:04;9.70;99.90
47482;DHT22;33219;47.410;9.730;2022-09-28T15:51:44;9.60;99.90
47482;DHT22;33219;47.410;9.730;2022-09-28T15:54:20;9.50;99.90
47482;DHT22;33219;47.410;9.730;2022-09-28T15:56:51;9.40;99.90
47482;DHT22;33219;47.410;9.730;2022-09-28T15:59:29;9.30;99.90
47482;DHT22;33219;47.410;9.730;2022-09-28T16:02:13;9.30;99.90
47482;DHT22;33219;47.410;9.730;2022-09-28T16:04:49;9.30;99.90
47482;DHT22;33219;47.410;9.730;2022-09-28T16:12:50;9.20;99.90
47482;DHT22;33219;47.410;9.730;2022-09-28T16:15:30;9.20;99.90
47482;DHT22;33219;47.410;9.730;2022-09-28T16:18:18;9.20;99.90
47482;DHT22;33219;47.410;9.730;2022-09-28T16:20:47;9.20;99.90
47482;DHT22;33219;47.410;9.730;2022-09-28T16:23:28;9.20;99.90
47482;DHT22;33219;47.410;9.730;2022-09-28T16:26:01;9.10;99.90
47482;DHT22;33219;47.410;9.730;2022-09-28T16:33:53;9.20;99.90
47482;DHT22;33219;47.410;9.730;2022-09-28T16:36:21;9.20;99.90
47482;DHT22;33219;47.410;9.730;2022-09-28T16:38:50;9.20;99.90
47482;DHT22;33219;47.410;9.730;2022-09-28T16:41:22;9.10;99.90
47482;DHT22;33219;47.410;9.730;2022-09-28T16:43:56;9.00;99.90
47482;DHT22;33219;47.410;9.730;2022-09-28T16:46:22;9.00;99.90
47482;DHT22;33219;47.410;9.730;2022-09-28T16:48:51;9.00;99.90
47482;DHT22;33219;47.410;9.730;2022-09-28T16:51:22;8.90;99.90
47482;DHT22;33219;47.410;9.730;2022-09-28T16:53:49;8.90;99.90
47482;DHT22;33219;47.410;9.730;2022-09-28T16:56:35;8.90;99.90
47482;DHT22;33219;47.410;9.730;2022-09-28T16:59:03;8.80;99.90
47482;DHT22;33219;47.410;9.730;2022-09-28T17:01:31;8.80;99.90
47482;DHT22;33219;47.410;9.730;2022-09-28T17:03:58;8.70;99.90
47482;DHT22;33219;47.410;9.730;2022-09-28T17:06:26;8.70;99.90
47482;DHT22;33219;47.410;9.730;2022-09-28T17:08:54;8.60;99.90
47482;DHT22;33219;47.410;9.730;2022-09-28T17:11:23;8.60;99.90
47482;DHT22;33219;47.410;9.730;2022-09-28T17:13:51;8.60;99.90
47482;DHT22;33219;47.410;9.730;2022-09-28T17:16:21;8.60;99.90
47482;DHT22;33219;47.410;9.730;2022-09-28T17:18:49;8.50;99.90
47482;DHT22;33219;47.410;9.730;2022-09-28T17:21:19;8.50;99.90
47482;DHT22;33219;47.410;9.730;2022-09-28T17:23:48;8.40;99.90
47482;DHT22;33219;47.410;9.730;2022-09-28T17:26:27;8.40;99.90
47482;DHT22;33219;47.410;9.730;2022-09-28T17:28:57;8.50;99.90
47482;DHT22;33219;47.410;9.730;2022-09-28T17:31:25;8.50;99.90
47482;DHT22;33219;47.410;9.730;2022-09-28T17:33:53;8.50;99.90
47482;DHT22;33219;47.410;9.730;2022-09-28T17:36:21;8.60;99.90
47482;DHT22;33219;47.410;9.730;2022-09-28T17:38:49;8.60;99.90
47482;DHT22;33219;47.410;9.730;2022-09-28T17:41:19;8.60;99.90
47482;DHT22;33219;47.410;9.730;2022-09-28T17:43:47;8.70;99.90
47482;DHT22;33219;47.410;9.730;2022-09-28T17:49:01;8.70;99.90
47482;DHT22;33219;47.410;9.730;2022-09-28T17:51:30;8.70;99.90
47482;DHT22;33219;47.410;9.730;2022-09-28T17:53:58;8.80;99.90
47482;DHT22;33219;47.410;9.730;2022-09-28T17:56:27;8.80;99.90
47482;DHT22;33219;47.410;9.730;2022-09-28T17:59:02;8.80;99.90
47482;DHT22;33219;47.410;9.730;2022-09-28T18:01:25;8.80;99.90
47482;DHT22;33219;47.410;9.730;2022-09-28T18:03:54;8.80;99.90
47482;DHT22;33219;47.410;9.730;2022-09-28T18:06:22;8.70;99.90
47482;DHT22;33219;47.410;9.730;2022-09-28T18:08:50;8.70;99.90
47482;DHT22;33219;47.410;9.730;2022-09-28T18:11:18;8.70;99.90
47482;DHT22;33219;47.410;9.730;2022-09-28T18:13:45;8.70;99.90
47482;DHT22;33219;47.410;9.730;2022-09-28T18:16:14;8.60;99.90
47482;DHT22;33219;47.410;9.730;2022-09-28T18:18:41;8.60;99.90
47482;DHT22;33219;47.410;9.730;2022-09-28T18:21:09;8.60;99.90
47482;DHT22;33219;47.410;9.730;2022-09-28T18:23:37;8.60;99.90
47482;DHT22;33219;47.410;9.730;2022-09-28T18:26:12;8.60;99.90
47482;DHT22;33219;47.410;9.730;2022-09-28T18:28:41;8.60;99.90
47482;DHT22;33219;47.410;9.730;2022-09-28T18:31:10;8.60;99.90
47482;DHT22;33219;47.410;9.730;2022-09-28T18:33:38;8.50;99.90
47482;DHT22;33219;47.410;9.730;2022-09-28T18:36:06;8.50;99.90
47482;DHT22;33219;47.410;9.730;2022-09-28T18:38:35;8.60;99.90
47482;DHT22;33219;47.410;9.730;2022-09-28T18:41:11;8.50;99.90
47482;DHT22;33219;47.410;9.730;2022-09-28T18:43:36;8.50;99.90
47482;DHT22;33219;47.410;9.730;2022-09-28T18:46:07;8.50;99.90
47482;DHT22;33219;47.410;9.730;2022-09-28T18:48:36;8.40;99.90
47482;DHT22;33219;47.410;9.730;2022-09-28T18:51:10;8.40;99.90
47482;DHT22;33219;47.410;9.730;2022-09-28T18:53:38;8.40;99.90
47482;DHT22;33219;47.410;9.730;2022-09-28T18:56:08;8.40;99.90
47482;DHT22;33219;47.410;9.730;2022-09-28T18:58:38;8.40;99.90
47482;DHT22;33219;47.410;9.730;2022-09-28T19:01:08;8.30;99.90
47482;DHT22;33219;47.410;9.730;2022-09-28T19:03:36;8.30;99.90
47482;DHT22;33219;47.410;9.730;2022-09-28T19:06:08;8.30;99.90
47482;DHT22;33219;47.410;9.730;2022-09-28T19:08:36;8.30;99.90
47482;DHT22;33219;47.410;9.730;2022-09-28T19:11:12;8.20;99.90
47482;DHT22;33219;47.410;9.730;2022-09-28T19:13:37;8.20;99.90
47482;DHT22;33219;47.410;9.730;2022-09-28T19:16:14;8.20;99.90
47482;DHT22;33219;47.410;9.730;2022-09-28T19:18:41;8.20;99.90
47482;DHT22;33219;47.410;9.730;2022-09-28T19:21:11;8.20;99.90
47482;DHT22;33219;47.410;9.730;2022-09-28T19:23:40;8.20;99.90
47482;DHT22;33219;47.410;9.730;2022-09-28T19:26:12;8.20;99.90
47482;DHT22;33219;47.410;9.730;2022-09-28T19:28:41;8.20;99.90
47482;DHT22;33219;47.410;9.730;2022-09-28T19:31:09;8.20;99.90
47482;DHT22;33219;47.410;9.730;2022-09-28T19:33:38;8.20;99.90
47482;DHT22;33219;47.410;9.730;2022-09-28T19:36:08;8.20;99.90
47482;DHT22;33219;47.410;9.730;2022-09-28T19:38:37;8.20;99.90
47482;DHT22;33219;47.410;9.730;2022-09-28T19:41:13;8.20;99.90
47482;DHT22;33219;47.410;9.730;2022-09-28T19:43:42;8.20;99.90
47482;DHT22;33219;47.410;9.730;2022-09-28T19:46:10;8.20;99.90
47482;DHT22;33219;47.410;9.730;2022-09-28T19:48:38;8.20;99.90
47482;DHT22;33219;47.410;9.730;2022-09-28T19:51:08;8.20;99.90
47482;DHT22;33219;47.410;9.730;2022-09-28T19:53:36;8.20;99.90
47482;DHT22;33219;47.410;9.730;2022-09-28T19:56:04;8.10;99.90
47482;DHT22;33219;47.410;9.730;2022-09-28T19:58:34;8.10;99.90
47482;DHT22;33219;47.410;9.730;2022-09-28T20:01:06;8.10;99.90
47482;DHT22;33219;47.410;9.730;2022-09-28T20:03:34;8.10;99.90
47482;DHT22;33219;47.410;9.730;2022-09-28T20:06:01;8.10;99.90
47482;DHT22;33219;47.410;9.730;2022-09-28T20:08:29;8.10;99.90
47482;DHT22;33219;47.410;9.730;2022-09-28T20:10:58;8.10;99.90
47482;DHT22;33219;47.410;9.730;2022-09-28T20:13:32;8.00;99.90
47482;DHT22;33219;47.410;9.730;2022-09-28T20:16:07;8.00;99.90
47482;DHT22;33219;47.410;9.730;2022-09-28T20:18:37;7.90;99.90
47482;DHT22;33219;47.410;9.730;2022-09-28T20:21:07;7.90;99.90
47482;DHT22;33219;47.410;9.730;2022-09-28T20:23:35;7.90;99.90
47482;DHT22;33219;47.410;9.730;2022-09-28T20:26:03;7.90;99.90
47482;DHT22;33219;47.410;9.730;2022-09-28T20:28:31;7.90;99.90